Time;durP1;ratioP1;P1;durP2;ratioP2;P2;SDS_P1;SDS_P2;PMS_P1;PMS_P2;Temp;Humidity;BMP_temperature;BMP_pressure;BME280_temperature;BME280_humidity;BME280_pressure;Samples;Min_cycle;Max_cycle;Signal;HPM_P1;HPM_P2
2022/12/31 00:01:22;;;;;;;1.13;0.80;;;;;;;11.00;100.00;154184.38;4989500;28;20508;-82
2022/12/31 00:04:09;;;;;;;4.30;0.90;;;;;;;11.08;100.00;154203.81;4996136;28;20792;-82
2022/12/31 00:06:54;;;;;;;1.03;0.80;;;;;;;11.05;100.00;154196.03;4995696;28;20448;-82
2022/12/31 00:09:40;;;;;;;1.10;0.53;;;;;;;11.05;100.00;154196.03;4993974;28;20893;-82
2022/12/31 00:12:25;;;;;;;1.00;0.50;;;;;;;11.13;100.00;154218.06;4987294;28;20459;-82
2022/12/31 00:15:11;;;;;;;1.20;0.80;;;;;;;11.14;100.00;154219.38;4992686;28;20426;-82
2022/12/31 00:17:56;;;;;;;1.30;0.77;;;;;;;11.21;100.00;154237.47;4992894;28;20450;-82
2022/12/31 00:20:43;;;;;;;1.10;0.63;;;;;;;11.21;100.00;154238.78;4981292;28;20434;-82
2022/12/31 00:23:28;;;;;;;1.30;0.60;;;;;;;11.24;100.00;154245.25;4993682;28;20474;-82
2022/12/31 00:26:16;;;;;;;0.87;0.53;;;;;;;11.26;100.00;154250.44;4992659;28;20481;-82
2022/12/31 00:29:02;;;;;;;1.10;0.60;;;;;;;11.29;100.00;154258.22;4989741;28;20439;-82
2022/12/31 00:31:47;;;;;;;1.37;0.67;;;;;;;11.30;100.00;154260.81;5005215;28;20458;-83
2022/12/31 00:34:33;;;;;;;0.93;0.50;;;;;;;11.26;100.00;154250.44;4992797;28;20983;-83
2022/12/31 00:37:20;;;;;;;0.80;0.40;;;;;;;11.28;100.00;154256.91;4992645;28;20790;-83
2022/12/31 00:40:06;;;;;;;1.13;0.50;;;;;;;11.29;100.00;154259.53;4991415;28;20447;-82
2022/12/31 00:42:52;;;;;;;1.40;1.20;;;;;;;11.37;100.00;154280.25;4993531;28;20481;-82
2022/12/31 00:45:37;;;;;;;1.40;0.83;;;;;;;11.40;100.00;154286.72;4992616;28;20459;-82
2022/12/31 00:48:22;;;;;;;0.90;0.50;;;;;;;11.43;100.00;154294.50;5002732;28;20551;-83
2022/12/31 00:51:11;;;;;;;1.20;0.70;;;;;;;11.44;100.00;154297.06;4992521;28;20576;-82
2022/12/31 00:53:58;;;;;;;1.03;0.60;;;;;;;11.49;100.00;154310.06;4992921;28;20414;-83
2022/12/31 00:56:43;;;;;;;1.70;0.80;;;;;;;11.46;100.00;154302.28;4992586;28;20481;-83
2022/12/31 00:59:28;;;;;;;1.27;0.70;;;;;;;11.46;100.00;154302.28;4990273;28;20441;-82
2022/12/31 01:02:13;;;;;;;1.40;0.90;;;;;;;11.49;100.00;154310.06;4992821;28;20849;-82
2022/12/31 01:04:59;;;;;;;1.83;0.87;;;;;;;11.46;100.00;154303.53;5003608;28;20469;-83
2022/12/31 01:07:44;;;;;;;1.30;0.83;;;;;;;11.45;100.00;154300.97;4995622;28;20453;-82
2022/12/31 01:13:34;;;;;;;1.23;0.83;;;;;;;11.36;100.00;154276.34;4989160;28;20433;-82
2022/12/31 01:16:21;;;;;;;1.10;0.70;;;;;;;11.44;100.00;154297.06;4995273;28;20453;-82
2022/12/31 01:19:08;;;;;;;1.17;0.60;;;;;;;11.51;100.00;154315.25;4990423;28;20442;-82
2022/12/31 01:21:54;;;;;;;5.17;0.90;;;;;;;11.51;100.00;154315.25;4996717;28;20516;-83
2022/12/31 01:24:40;;;;;;;1.63;0.80;;;;;;;11.50;100.00;154312.63;5002632;28;20458;-82
2022/12/31 01:27:27;;;;;;;3.63;0.87;;;;;;;11.50;100.00;154312.63;4974197;28;20431;-82
2022/12/31 01:30:13;;;;;;;1.27;0.90;;;;;;;11.52;100.00;154317.81;4997028;28;20507;-83
2022/12/31 01:32:58;;;;;;;1.37;0.70;;;;;;;11.43;100.00;154294.50;5000176;28;20438;-82
2022/12/31 01:35:44;;;;;;;1.00;0.60;;;;;;;11.44;100.00;154297.06;4990203;28;20533;-83
2022/12/31 01:38:29;;;;;;;2.03;0.70;;;;;;;11.43;100.00;154295.81;4982857;28;20426;-83
2022/12/31 01:41:18;;;;;;;2.83;0.73;;;;;;;11.50;100.00;154312.63;4987905;28;20957;-82
2022/12/31 01:44:37;;;;;;;1.97;0.67;;;;;;;11.44;100.00;154297.06;4985855;28;20574;-83
2022/12/31 01:47:33;;;;;;;1.30;0.90;;;;;;;11.43;100.00;154295.81;4971608;28;20566;-82
2022/12/31 01:50:21;;;;;;;2.50;0.80;;;;;;;11.46;100.00;154302.28;5002015;28;20524;-83
2022/12/31 01:53:08;;;;;;;1.07;0.60;;;;;;;11.65;100.00;154351.50;4994292;28;20562;-83
2022/12/31 01:55:55;;;;;;;1.40;0.83;;;;;;;11.63;100.00;154346.31;4993940;28;20429;-82
2022/12/31 01:58:43;;;;;;;1.17;0.90;;;;;;;11.65;100.00;154351.50;5000192;28;20449;-82
2022/12/31 02:01:31;;;;;;;1.40;0.90;;;;;;;11.56;100.00;154328.19;4994279;28;20584;-83
2022/12/31 02:04:17;;;;;;;2.00;1.13;;;;;;;11.58;100.00;154333.38;4994552;28;20418;-82
2022/12/31 02:07:05;;;;;;;1.70;1.03;;;;;;;11.64;100.00;154348.94;4994619;28;20993;-82
2022/12/31 02:09:51;;;;;;;1.20;0.80;;;;;;;11.58;100.00;154334.66;4995512;28;20431;-82
2022/12/31 02:12:37;;;;;;;1.20;0.80;;;;;;;11.68;100.00;154359.28;4977721;28;20916;-83
2022/12/31 02:15:29;;;;;;;2.03;1.30;;;;;;;11.67;100.00;154356.72;4992339;28;20432;-82
2022/12/31 02:18:23;;;;;;;1.30;0.70;;;;;;;11.72;100.00;154369.72;4994333;28;20544;-82
2022/12/31 02:21:37;;;;;;;2.47;1.30;;;;;;;11.69;100.00;154361.94;4994918;28;20441;-82
2022/12/31 02:24:37;;;;;;;3.63;0.90;;;;;;;11.71;100.00;154365.81;4995659;28;20508;-82
2022/12/31 02:27:33;;;;;;;1.10;0.70;;;;;;;11.66;100.00;154354.09;4994761;28;20451;-82
2022/12/31 02:30:22;;;;;;;1.40;1.00;;;;;;;11.67;100.00;154356.72;4986912;28;20449;-82
2022/12/31 02:33:12;;;;;;;2.93;1.20;;;;;;;11.78;100.00;154385.22;4995493;28;20562;-82
2022/12/31 02:35:59;;;;;;;1.10;0.77;;;;;;;11.77;100.00;154382.66;5007381;28;20469;-82
2022/12/31 02:38:46;;;;;;;1.60;0.80;;;;;;;11.84;100.00;154400.78;4997700;28;20449;-82
2022/12/31 02:41:50;;;;;;;1.70;1.00;;;;;;;11.80;100.00;154390.44;4994052;28;20463;-82
2022/12/31 02:44:36;;;;;;;1.47;1.00;;;;;;;11.78;100.00;154383.97;4993392;28;20441;-82
2022/12/31 02:47:33;;;;;;;2.03;1.00;;;;;;;11.84;100.00;154400.78;4989971;28;20457;-82
2022/12/31 02:50:31;;;;;;;1.20;0.70;;;;;;;11.76;100.00;154380.06;4991545;28;20431;-83
2022/12/31 02:53:25;;;;;;;2.43;0.90;;;;;;;11.82;100.00;154395.63;4996958;28;20988;-83
2022/12/31 02:56:17;;;;;;;1.60;0.90;;;;;;;11.81;100.00;154391.75;4989942;28;20426;-83
2022/12/31 03:02:42;;;;;;;4.30;0.90;;;;;;;11.79;100.00;154387.84;4994326;28;20492;-79
2022/12/31 03:05:29;;;;;;;1.73;1.10;;;;;;;11.82;100.00;154395.63;4999108;28;21001;-79
2022/12/31 03:08:21;;;;;;;2.03;1.20;;;;;;;11.92;100.00;154420.22;5001537;28;20474;-79
2022/12/31 03:12:44;;;;;;;3.80;0.80;;;;;;;11.87;100.00;154408.56;4993354;28;20458;-79
2022/12/31 03:14:10;;;;;;;2.70;0.90;;;;;;;11.86;100.00;154405.97;4994849;28;20430;-79
2022/12/31 03:16:56;;;;;;;1.20;0.87;;;;;;;11.93;100.00;154422.84;4994569;28;20443;-79
2022/12/31 03:22:57;;;;;;;1.90;0.90;;;;;;;12.04;100.00;154452.69;4914561;29;21049;-79
2022/12/31 03:25:42;;;;;;;3.40;0.87;;;;;;;11.98;100.00;154437.09;5001313;28;20821;-79
2022/12/31 03:28:29;;;;;;;1.23;0.87;;;;;;;12.02;100.00;154447.44;5013239;28;20453;-79
2022/12/31 03:31:15;;;;;;;1.20;1.03;;;;;;;11.96;100.00;154430.63;4990812;28;20447;-79
2022/12/31 03:34:00;;;;;;;2.00;0.87;;;;;;;12.02;100.00;154447.44;4994645;28;20469;-79
2022/12/31 03:36:47;;;;;;;1.57;0.93;;;;;;;12.02;100.00;154447.44;4994454;28;20446;-79
2022/12/31 03:39:32;;;;;;;1.50;0.90;;;;;;;12.08;100.00;154463.03;4991152;28;20438;-78
2022/12/31 03:42:18;;;;;;;1.10;0.80;;;;;;;12.16;100.00;154482.47;4994283;28;20453;-79
2022/12/31 03:45:04;;;;;;;1.10;0.70;;;;;;;12.13;100.00;154475.97;4993842;28;20570;-79
2022/12/31 03:47:49;;;;;;;0.97;0.60;;;;;;;12.25;100.00;154504.50;4992001;28;20918;-79
2022/12/31 03:50:35;;;;;;;1.20;0.80;;;;;;;12.30;100.00;154517.47;4985851;28;20589;-79
2022/12/31 03:53:22;;;;;;;1.20;0.80;;;;;;;12.28;100.00;154512.31;4983005;28;20838;-79
2022/12/31 03:56:08;;;;;;;2.20;1.10;;;;;;;12.30;100.00;154518.78;4991375;28;20565;-79
2022/12/31 03:58:53;;;;;;;1.20;0.90;;;;;;;12.37;100.00;154535.59;4992314;28;20765;-79
2022/12/31 04:01:39;;;;;;;1.20;0.90;;;;;;;12.32;100.00;154522.66;4988150;28;20454;-79
2022/12/31 04:04:24;;;;;;;1.27;0.80;;;;;;;12.35;100.00;154531.75;4991341;28;20530;-79
2022/12/31 04:07:09;;;;;;;3.17;0.83;;;;;;;12.48;100.00;154565.44;4998620;28;20469;-79
2022/12/31 04:09:57;;;;;;;1.30;0.63;;;;;;;12.51;100.00;154571.94;4990065;28;20414;-79
2022/12/31 04:12:42;;;;;;;1.40;0.73;;;;;;;12.71;100.00;154623.78;4988984;28;21136;-79
2022/12/31 04:15:28;;;;;;;1.07;0.77;;;;;;;12.74;100.00;154631.56;4998498;28;20518;-79
2022/12/31 04:18:13;;;;;;;1.47;0.80;;;;;;;12.69;100.00;154618.63;5009324;28;20458;-79
2022/12/31 04:21:01;;;;;;;1.97;1.00;;;;;;;12.70;100.00;154621.22;4997561;28;20458;-79
2022/12/31 04:23:46;;;;;;;1.70;0.90;;;;;;;12.69;100.00;154619.91;4991379;28;20455;-79
2022/12/31 04:26:34;;;;;;;1.03;0.60;;;;;;;12.67;100.00;154613.44;4993503;28;20470;-79
2022/12/31 04:29:19;;;;;;;1.17;0.70;;;;;;;12.79;100.00;154644.53;4993794;28;20783;-79
2022/12/31 04:32:06;;;;;;;1.43;0.87;;;;;;;12.77;100.00;154640.66;4995245;28;20500;-79
2022/12/31 04:34:51;;;;;;;1.83;1.00;;;;;;;12.81;100.00;154649.75;4991143;28;20982;-79
2022/12/31 04:37:36;;;;;;;1.00;0.60;;;;;;;12.80;100.00;154647.16;4989778;28;20479;-79
2022/12/31 04:40:22;;;;;;;1.17;0.80;;;;;;;12.70;100.00;154622.53;4989843;28;20450;-79
2022/12/31 04:43:09;;;;;;;1.10;0.67;;;;;;;12.73;100.00;154630.28;4988664;28;20435;-79
2022/12/31 04:45:54;;;;;;;0.93;0.70;;;;;;;12.75;100.00;154634.19;4990068;28;20471;-79
2022/12/31 04:48:40;;;;;;;1.30;0.77;;;;;;;12.77;100.00;154639.38;4989147;28;20434;-79
2022/12/31 04:51:27;;;;;;;1.10;0.80;;;;;;;12.82;100.00;154652.31;4991348;28;20457;-79
2022/12/31 04:54:13;;;;;;;1.17;0.80;;;;;;;12.84;100.00;154657.50;4992265;28;21041;-79
2022/12/31 04:56:58;;;;;;;2.30;0.90;;;;;;;12.79;100.00;154644.53;4991628;28;20455;-79
2022/12/31 04:59:45;;;;;;;1.90;1.10;;;;;;;12.75;100.00;154634.19;4990385;28;20458;-79
2022/12/31 05:02:30;;;;;;;1.10;0.70;;;;;;;12.79;100.00;154644.53;4990201;28;20451;-79
2022/12/31 05:05:16;;;;;;;2.43;0.70;;;;;;;12.79;100.00;154644.53;4976060;28;20579;-79
2022/12/31 05:08:01;;;;;;;2.23;0.87;;;;;;;12.77;100.00;154639.38;4985270;28;22383;-79
2022/12/31 05:10:48;;;;;;;2.53;0.73;;;;;;;12.72;100.00;154626.41;4989249;28;20538;-79
2022/12/31 05:13:33;;;;;;;1.00;0.60;;;;;;;12.73;100.00;154629.00;4977604;28;20434;-79
2022/12/31 05:16:20;;;;;;;1.50;1.03;;;;;;;12.75;100.00;154635.50;4991315;28;20463;-79
2022/12/31 05:19:08;;;;;;;1.50;1.00;;;;;;;12.74;100.00;154632.88;4987717;28;20437;-79
2022/12/31 05:24:52;;;;;;;1.40;0.70;;;;;;;12.66;100.00;154610.81;4998118;28;20447;-79
2022/12/31 05:27:38;;;;;;;2.13;1.10;;;;;;;12.63;100.00;154603.03;5001056;28;20500;-79
2022/12/31 05:30:23;;;;;;;1.40;1.07;;;;;;;12.72;100.00;154626.41;4984479;28;20449;-79
2022/12/31 05:33:10;;;;;;;1.10;0.70;;;;;;;12.67;100.00;154613.44;4995878;28;20447;-79
2022/12/31 05:35:57;;;;;;;1.20;0.80;;;;;;;12.63;100.00;154604.34;4996973;28;21069;-79
2022/12/31 05:38:42;;;;;;;1.77;1.20;;;;;;;12.60;100.00;154595.28;4999970;28;20493;-79
2022/12/31 05:41:27;;;;;;;1.43;1.17;;;;;;;12.66;100.00;154612.13;4999848;28;20805;-79
2022/12/31 05:44:13;;;;;;;1.70;1.00;;;;;;;12.59;100.00;154592.69;4997663;28;20460;-79
2022/12/31 05:46:58;;;;;;;1.87;0.97;;;;;;;12.67;100.00;154613.44;4988521;28;20533;-79
2022/12/31 05:49:45;;;;;;;1.83;1.00;;;;;;;12.65;100.00;154609.56;4982786;28;20448;-79
2022/12/31 05:52:30;;;;;;;1.10;0.70;;;;;;;12.71;100.00;154625.09;4982312;28;20510;-79
2022/12/31 05:55:15;;;;;;;1.30;1.00;;;;;;;12.63;100.00;154604.34;5006040;28;20520;-79
2022/12/31 05:58:01;;;;;;;1.30;1.00;;;;;;;12.58;100.00;154590.06;4993346;28;20463;-79
2022/12/31 06:00:46;;;;;;;1.13;0.80;;;;;;;12.53;100.00;154578.41;4989670;28;20482;-79
2022/12/31 06:03:31;;;;;;;1.27;0.77;;;;;;;12.58;100.00;154590.06;4986847;28;20590;-79
2022/12/31 06:06:18;;;;;;;1.43;0.90;;;;;;;12.60;100.00;154595.28;4990152;28;20648;-79
2022/12/31 06:09:04;;;;;;;1.30;0.80;;;;;;;12.56;100.00;154584.91;4980859;28;20463;-79
2022/12/31 06:11:49;;;;;;;1.97;1.00;;;;;;;12.51;100.00;154571.94;4980414;28;20463;-79
2022/12/31 06:14:34;;;;;;;1.83;0.80;;;;;;;12.49;100.00;154566.75;4980153;28;20446;-79
2022/12/31 06:17:21;;;;;;;1.37;1.00;;;;;;;12.46;100.00;154560.28;4981079;28;20451;-79
2022/12/31 06:20:07;;;;;;;1.20;0.87;;;;;;;12.45;100.00;154556.34;4980094;28;20444;-79
2022/12/31 06:22:54;;;;;;;1.07;0.87;;;;;;;12.51;100.00;154571.94;4980771;28;20463;-79
2022/12/31 06:25:39;;;;;;;1.10;0.70;;;;;;;12.53;100.00;154577.09;4994130;28;20455;-79
2022/12/31 06:28:24;;;;;;;1.30;1.00;;;;;;;12.57;100.00;154588.81;4981029;28;20522;-79
2022/12/31 06:31:12;;;;;;;1.83;1.10;;;;;;;12.60;100.00;154596.56;4979333;28;20808;-79
2022/12/31 06:33:57;;;;;;;1.53;0.90;;;;;;;12.57;100.00;154587.50;4979178;28;20610;-79
2022/12/31 06:36:44;;;;;;;1.10;0.90;;;;;;;12.60;100.00;154596.56;4983792;28;20533;-79
2022/12/31 06:39:30;;;;;;;1.30;0.80;;;;;;;12.57;100.00;154587.50;4983096;28;20443;-79
2022/12/31 06:42:16;;;;;;;1.20;1.07;;;;;;;12.63;100.00;154604.34;4983037;28;20829;-79
2022/12/31 06:45:01;;;;;;;1.20;0.80;;;;;;;12.61;100.00;154597.84;4985079;28;20560;-79
2022/12/31 06:47:47;;;;;;;1.30;0.90;;;;;;;12.62;100.00;154601.78;4983872;28;20824;-78
2022/12/31 06:50:34;;;;;;;1.70;0.83;;;;;;;12.61;100.00;154599.16;4982641;28;20463;-78
2022/12/31 06:53:20;;;;;;;1.30;0.90;;;;;;;12.60;100.00;154596.56;4984013;28;20970;-79
2022/12/31 06:56:08;;;;;;;1.10;0.70;;;;;;;12.59;100.00;154592.69;4982849;28;20475;-79
2022/12/31 06:58:54;;;;;;;1.47;0.97;;;;;;;12.67;100.00;154613.44;4984962;28;21061;-79
2022/12/31 07:01:47;;;;;;;3.03;0.90;;;;;;;12.70;100.00;154621.22;4981814;28;20559;-79
2022/12/31 07:05:06;;;;;;;1.13;0.90;;;;;;;12.74;100.00;154631.56;4981946;28;20511;-79
2022/12/31 07:07:58;;;;;;;1.40;0.73;;;;;;;12.77;100.00;154639.38;4971490;28;20486;-79
2022/12/31 07:10:49;;;;;;;1.00;0.73;;;;;;;12.81;100.00;154649.75;4983316;28;20597;-79
2022/12/31 07:13:59;;;;;;;1.87;1.03;;;;;;;12.77;100.00;154640.66;4993470;28;20534;-79
2022/12/31 07:16:53;;;;;;;1.73;0.90;;;;;;;12.73;100.00;154630.28;4981218;28;20993;-79
2022/12/31 07:19:47;;;;;;;0.97;0.63;;;;;;;12.77;100.00;154639.38;4982721;28;20439;-79
2022/12/31 07:22:33;;;;;;;1.00;0.70;;;;;;;12.71;100.00;154623.78;4984969;28;21002;-79
2022/12/31 07:25:20;;;;;;;1.80;0.90;;;;;;;12.68;100.00;154617.31;4984816;28;20997;-79
2022/12/31 07:28:13;;;;;;;1.10;0.70;;;;;;;12.66;100.00;154610.81;4981535;28;20595;-79
2022/12/31 07:31:06;;;;;;;1.20;0.70;;;;;;;12.69;100.00;154618.63;4982753;28;20632;-79
2022/12/31 07:33:58;;;;;;;1.00;0.70;;;;;;;12.72;100.00;154626.41;4983360;28;20843;-79
2022/12/31 07:36:54;;;;;;;1.33;0.77;;;;;;;12.73;100.00;154629.00;4980925;28;20808;-79
2022/12/31 07:39:42;;;;;;;1.10;0.70;;;;;;;12.76;100.00;154638.06;4983497;28;20456;-79
2022/12/31 07:42:33;;;;;;;1.10;0.70;;;;;;;12.83;100.00;154654.94;4984801;28;20458;-79
2022/12/31 07:45:23;;;;;;;1.00;0.70;;;;;;;12.91;100.00;154674.41;4981517;28;20434;-79
2022/12/31 07:48:22;;;;;;;1.30;0.80;;;;;;;12.96;100.00;154688.66;4982180;28;20574;-79
2022/12/31 07:51:10;;;;;;;1.17;0.77;;;;;;;13.06;100.00;154714.59;4982498;28;20782;-79
2022/12/31 07:53:58;;;;;;;1.10;0.70;;;;;;;12.98;100.00;154692.53;4984334;28;20444;-79
2022/12/31 07:56:44;;;;;;;1.10;0.80;;;;;;;13.05;100.00;154710.72;4982342;28;20452;-79
2022/12/31 07:59:39;;;;;;;1.33;0.80;;;;;;;13.06;100.00;154714.59;4983891;28;20458;-79
2022/12/31 08:02:35;;;;;;;1.20;0.70;;;;;;;13.07;100.00;154717.25;4982282;28;20539;-79
2022/12/31 08:05:26;;;;;;;1.30;0.80;;;;;;;13.10;100.00;154725.06;4979836;28;20450;-79
2022/12/31 08:08:23;;;;;;;1.13;0.73;;;;;;;13.17;100.00;154741.91;4980050;28;20980;-79
2022/12/31 08:11:15;;;;;;;1.43;0.80;;;;;;;13.23;100.00;154757.47;4982661;28;20501;-79
2022/12/31 08:14:02;;;;;;;1.30;0.83;;;;;;;13.35;100.00;154789.91;4986740;28;21058;-79
2022/12/31 08:16:47;;;;;;;0.93;0.60;;;;;;;13.36;100.00;154792.53;4984337;28;20461;-79
2022/12/31 08:19:33;;;;;;;1.20;0.73;;;;;;;13.45;100.00;154813.28;4984312;28;22061;-79
2022/12/31 08:22:32;;;;;;;1.60;0.93;;;;;;;13.48;100.00;154821.03;4983992;28;20498;-79
2022/12/31 08:25:23;;;;;;;1.10;0.70;;;;;;;13.45;100.00;154813.28;4974008;28;20459;-79
2022/12/31 08:28:15;;;;;;;2.13;0.80;;;;;;;13.53;100.00;154835.31;4984819;28;20990;-79
2022/12/31 08:31:03;;;;;;;1.33;0.93;;;;;;;13.58;100.00;154847.03;4982578;28;20463;-79
2022/12/31 08:33:52;;;;;;;1.13;0.67;;;;;;;13.66;100.00;154869.06;4982802;28;20629;-80
2022/12/31 08:36:45;;;;;;;1.20;0.80;;;;;;;13.62;100.00;154857.38;4982938;28;20945;-80
2022/12/31 08:39:43;;;;;;;2.00;0.87;;;;;;;13.61;100.00;154856.06;4983339;28;20480;-79
2022/12/31 08:42:32;;;;;;;1.00;0.60;;;;;;;13.73;100.00;154885.94;4984003;28;20486;-79
2022/12/31 08:45:25;;;;;;;1.83;0.80;;;;;;;13.77;100.00;154897.63;4979937;28;20443;-79
2022/12/31 08:48:17;;;;;;;2.07;0.90;;;;;;;13.74;100.00;154888.56;4983555;28;20602;-79
2022/12/31 08:51:03;;;;;;;1.00;0.70;;;;;;;13.67;100.00;154870.34;4980932;28;20990;-80
2022/12/31 08:53:49;;;;;;;1.77;1.07;;;;;;;13.74;100.00;154888.56;4994986;28;20443;-79
2022/12/31 08:56:40;;;;;;;1.30;0.93;;;;;;;13.75;100.00;154891.13;4985041;28;20597;-79
2022/12/31 08:59:34;;;;;;;1.37;1.00;;;;;;;13.71;100.00;154882.06;4983114;28;20591;-79
2022/12/31 09:02:42;;;;;;;2.20;0.97;;;;;;;13.78;100.00;154898.91;4981771;28;20468;-79
2022/12/31 09:05:32;;;;;;;2.00;1.43;;;;;;;13.73;100.00;154885.94;4982569;28;20562;-79
2022/12/31 09:08:24;;;;;;;1.43;1.33;;;;;;;13.74;100.00;154888.56;4979942;28;20586;-79
2022/12/31 09:11:13;;;;;;;1.87;0.90;;;;;;;13.72;100.00;154883.34;4981586;28;20463;-79
2022/12/31 09:14:13;;;;;;;2.63;1.67;;;;;;;13.83;100.00;154911.91;4981434;28;20452;-79
2022/12/31 09:17:03;;;;;;;2.40;1.30;;;;;;;13.93;100.00;154937.84;4979721;28;20468;-79
2022/12/31 09:19:49;;;;;;;2.10;1.70;;;;;;;13.89;100.00;154928.81;4981934;28;21076;-79
2022/12/31 09:22:35;;;;;;;1.70;1.00;;;;;;;14.04;99.06;154967.72;4981818;28;20458;-79
2022/12/31 09:25:22;;;;;;;1.53;0.97;;;;;;;14.05;98.99;154969.03;4979716;28;20501;-79
2022/12/31 09:28:14;;;;;;;1.83;1.00;;;;;;;14.20;97.98;155006.66;4981435;28;20627;-79
2022/12/31 09:31:06;;;;;;;1.33;1.03;;;;;;;14.26;98.26;155023.56;4981084;28;20450;-79
2022/12/31 09:33:57;;;;;;;2.20;1.07;;;;;;;14.31;97.78;155036.59;4977886;28;20481;-79
2022/12/31 09:36:46;;;;;;;1.83;1.20;;;;;;;14.37;97.18;155050.88;4979802;28;20452;-79
2022/12/31 09:39:37;;;;;;;3.23;1.97;;;;;;;14.48;97.73;155079.47;4981286;28;20487;-79
2022/12/31 09:42:58;;;;;;;1.53;1.20;;;;;;;14.49;96.38;155083.34;4978481;28;20783;-79
2022/12/31 09:46:00;;;;;;;2.53;1.17;;;;;;;14.57;96.06;155102.81;4981326;28;20451;-79
2022/12/31 09:49:06;;;;;;;1.73;1.10;;;;;;;14.66;95.38;155126.22;4980520;28;20870;-79
2022/12/31 09:51:57;;;;;;;1.90;1.50;;;;;;;14.83;93.83;155169.06;4981332;28;20460;-79
2022/12/31 09:54:52;;;;;;;1.40;1.23;;;;;;;14.79;95.23;155160.00;4982787;28;20464;-79
2022/12/31 09:57:39;;;;;;;1.70;1.33;;;;;;;14.79;95.18;155158.69;4974786;28;20452;-79
2022/12/31 10:00:33;;;;;;;2.70;1.13;;;;;;;14.86;94.33;155176.84;4979882;28;20442;-79
2022/12/31 10:03:48;;;;;;;2.43;1.00;;;;;;;14.87;94.17;155179.47;4980577;28;20809;-79
2022/12/31 10:06:39;;;;;;;1.70;1.47;;;;;;;14.97;95.09;155206.75;4980873;28;20506;-79
2022/12/31 10:09:45;;;;;;;2.03;1.57;;;;;;;15.15;90.90;155252.22;4986169;28;20486;-79
2022/12/31 10:12:55;;;;;;;1.53;1.10;;;;;;;15.17;90.19;155257.41;4983621;28;20795;-79
2022/12/31 10:16:01;;;;;;;2.00;1.40;;;;;;;15.26;92.00;155280.81;4982936;28;20965;-79
2022/12/31 10:18:57;;;;;;;1.70;1.43;;;;;;;15.26;89.96;155280.81;4993632;28;21053;-79
2022/12/31 10:21:57;;;;;;;4.40;2.40;;;;;;;15.37;88.79;155309.41;4985463;28;20806;-79
2022/12/31 10:24:56;;;;;;;1.90;1.30;;;;;;;15.34;90.57;155301.59;4980997;28;20452;-79
2022/12/31 10:27:54;;;;;;;2.13;0.93;;;;;;;15.44;88.84;155327.59;4983670;28;20604;-79
2022/12/31 10:30:45;;;;;;;1.40;1.10;;;;;;;15.41;89.53;155319.78;4982374;28;20443;-79
2022/12/31 10:33:40;;;;;;;0.90;0.57;;;;;;;15.42;89.43;155322.41;4986109;28;20549;-79
2022/12/31 10:36:31;;;;;;;1.93;1.03;;;;;;;15.46;87.66;155332.81;4983654;28;20808;-80
2022/12/31 10:39:35;;;;;;;1.20;0.80;;;;;;;15.51;87.82;155345.88;4983110;28;20459;-79
2022/12/31 10:43:03;;;;;;;1.17;0.80;;;;;;;15.51;89.84;155344.56;4983240;28;20443;-79
2022/12/31 10:46:21;;;;;;;1.87;1.20;;;;;;;15.58;86.57;155364.03;4982959;28;20442;-79
2022/12/31 10:49:26;;;;;;;1.87;0.83;;;;;;;15.55;87.45;155354.94;4983419;28;20529;-79
2022/12/31 10:52:47;;;;;;;1.10;0.77;;;;;;;15.48;87.54;155338.06;4982145;28;20557;-79
2022/12/31 10:55:50;;;;;;;1.90;0.77;;;;;;;15.62;86.03;155374.41;4979075;28;20481;-79
2022/12/31 10:59:08;;;;;;;1.30;0.80;;;;;;;15.50;87.70;155343.25;4985238;28;20469;-79
2022/12/31 11:02:04;;;;;;;1.20;0.80;;;;;;;15.62;84.89;155374.41;4980283;28;20815;-79
2022/12/31 11:05:08;;;;;;;1.30;0.90;;;;;;;15.69;85.67;155391.34;4986550;28;20606;-79
2022/12/31 11:08:06;;;;;;;1.27;0.63;;;;;;;15.56;86.75;155358.84;4983161;28;20629;-79
2022/12/31 11:11:17;;;;;;;1.10;0.73;;;;;;;15.81;84.65;155422.53;4993352;28;20455;-79
2022/12/31 11:14:31;;;;;;;1.00;0.70;;;;;;;15.70;83.84;155395.22;4982302;28;20456;-79
2022/12/31 11:17:39;;;;;;;5.60;1.00;;;;;;;15.76;82.64;155409.53;4969676;28;20452;-79
2022/12/31 11:20:31;;;;;;;1.10;0.77;;;;;;;15.77;84.75;155412.13;4987302;28;20442;-79
2022/12/31 11:23:28;;;;;;;1.37;0.80;;;;;;;15.80;84.05;155421.25;4980352;28;20463;-79
2022/12/31 11:26:22;;;;;;;1.23;0.87;;;;;;;15.93;81.95;155452.44;4984083;28;20859;-79
2022/12/31 11:29:17;;;;;;;1.30;0.90;;;;;;;15.92;85.32;155449.81;4983676;28;20564;-79
2022/12/31 11:32:20;;;;;;;1.00;0.70;;;;;;;15.90;83.51;155444.63;4981801;28;20453;-79
2022/12/31 11:35:31;;;;;;;1.83;1.00;;;;;;;15.94;81.39;155455.06;4985607;28;20482;-79
2022/12/31 11:38:21;;;;;;;2.17;1.20;;;;;;;15.93;82.35;155453.75;4978479;28;20470;-79
2022/12/31 11:41:08;;;;;;;4.30;1.00;;;;;;;16.00;81.79;155471.94;4983172;28;20535;-79
2022/12/31 11:44:02;;;;;;;1.73;1.13;;;;;;;15.89;83.49;155442.00;4984886;28;20452;-79
2022/12/31 11:47:00;;;;;;;2.27;1.20;;;;;;;15.95;81.65;155457.63;4979009;28;20447;-79
2022/12/31 11:49:54;;;;;;;1.70;1.10;;;;;;;16.03;80.18;155478.44;4980862;28;20512;-79
2022/12/31 11:52:50;;;;;;;1.70;1.40;;;;;;;16.08;82.17;155491.44;4985495;28;20443;-79
2022/12/31 11:55:41;;;;;;;2.53;1.13;;;;;;;16.06;81.42;155487.56;4984510;28;20673;-79
2022/12/31 11:58:29;;;;;;;4.40;2.30;;;;;;;16.16;80.51;155512.25;4981214;28;20473;-79
2022/12/31 12:01:18;;;;;;;1.80;1.20;;;;;;;16.09;82.04;155494.06;4983707;28;20806;-79
2022/12/31 12:04:04;;;;;;;1.70;1.20;;;;;;;16.10;80.30;155496.63;4982240;28;20808;-79
2022/12/31 12:06:50;;;;;;;2.17;1.60;;;;;;;16.07;80.97;155490.13;4983450;28;20439;-79
2022/12/31 12:09:35;;;;;;;2.20;0.87;;;;;;;16.08;81.39;155492.75;4982223;28;20503;-79
2022/12/31 12:12:21;;;;;;;1.30;0.90;;;;;;;16.14;81.60;155507.06;4981592;28;20520;-79
2022/12/31 12:15:08;;;;;;;1.20;0.80;;;;;;;16.25;79.23;155535.66;4982438;28;20456;-79
2022/12/31 12:17:57;;;;;;;2.00;1.43;;;;;;;16.25;80.99;155535.66;4983245;28;20459;-79
2022/12/31 12:20:44;;;;;;;1.67;1.20;;;;;;;16.13;82.55;155505.75;4981944;28;20839;-79
2022/12/31 12:23:29;;;;;;;1.53;1.00;;;;;;;16.24;81.39;155533.06;4984243;28;21099;-79
2022/12/31 12:26:27;;;;;;;2.57;1.10;;;;;;;16.24;81.14;155533.06;4980486;28;20455;-79
2022/12/31 12:29:17;;;;;;;2.23;1.67;;;;;;;16.15;80.37;155509.66;4985535;28;21061;-79
2022/12/31 12:32:04;;;;;;;2.00;1.40;;;;;;;16.25;78.76;155535.66;4981988;28;20444;-79
2022/12/31 12:34:51;;;;;;;2.00;1.77;;;;;;;16.20;82.80;155523.94;4978003;28;20484;-79
2022/12/31 12:37:37;;;;;;;1.47;1.13;;;;;;;16.22;79.05;155529.16;4982605;28;20523;-79
2022/12/31 12:40:23;;;;;;;1.80;1.30;;;;;;;16.37;77.96;155566.84;4980715;28;20435;-79
2022/12/31 12:43:22;;;;;;;3.93;1.53;;;;;;;16.42;78.69;155579.88;4994612;28;20799;-79
2022/12/31 12:46:19;;;;;;;1.93;1.50;;;;;;;16.29;79.86;155547.34;4982231;28;20512;-79
2022/12/31 12:49:04;;;;;;;3.00;1.70;;;;;;;16.32;79.31;155553.84;4983307;28;20479;-80
2022/12/31 12:52:06;;;;;;;2.43;1.30;;;;;;;16.36;77.87;155564.28;4993259;28;20448;-78
2022/12/31 12:55:06;;;;;;;2.87;1.70;;;;;;;16.38;78.15;155569.47;4981189;28;20977;-80
2022/12/31 12:57:57;;;;;;;2.60;1.70;;;;;;;16.40;78.80;155575.97;4982860;28;20449;-80
2022/12/31 13:00:46;;;;;;;2.70;1.20;;;;;;;16.25;79.11;155535.66;4982204;28;20454;-80
2022/12/31 13:03:54;;;;;;;1.93;1.47;;;;;;;16.31;77.63;155552.56;4997932;28;20462;-79
2022/12/31 13:06:50;;;;;;;2.20;1.30;;;;;;;16.48;75.52;155595.47;4980834;28;20455;-80
2022/12/31 13:09:49;;;;;;;2.03;1.23;;;;;;;16.47;77.06;155592.88;4981463;28;20494;-80
2022/12/31 13:12:38;;;;;;;3.30;2.23;;;;;;;16.44;77.11;155585.09;4984221;28;20466;-80
2022/12/31 13:15:28;;;;;;;3.13;1.27;;;;;;;16.41;76.53;155577.28;4985111;28;20456;-78
2022/12/31 13:18:35;;;;;;;2.27;1.00;;;;;;;16.35;80.28;155562.97;4981664;28;20539;-80
2022/12/31 13:21:31;;;;;;;6.10;3.77;;;;;;;16.33;77.04;155557.78;4982589;28;20462;-80